Eendracht — PDVN — position and weather

sailwx.info

Track history (hours):
 
Tides and Currents Weather Stations Pressure Air Temp Water Temp Dewpoint Dewpoint Depression Visibility Wind Speed Wind Dir Waves Ship Positions

Eendracht (Netherlands)

Last reported at 2020-Jan-24 03:15 UTC. Time now 2020-Jan-24 04:48 UTC.
Position N 18°04' W 063°06'.

Length 59 m; beam 12 m; draft 5 m.

Type: Sailing vessel. MMSI: 244543000.

Date/timePositionNaut miles runAvg speedWind from/ knotsBaromVisibWave heightAir tempDewpointWater temp
2020-Jan-24 03:15N 18°04' W 063°06'0 0.0
2020-Jan-24 02:03N 18°05' W 063°06'0 0.0
2020-Jan-24 00:30N 18°05' W 063°06'0 0.0
2020-Jan-23 23:30N 18°05' W 063°06'0 0.0
2020-Jan-23 22:00N 18°05' W 063°06'0 0.0
2020-Jan-23 16:24N 18°04' W 063°06'0 0.0
2020-Jan-23 15:24N 18°04' W 063°06'0 0.0
2020-Jan-23 13:54N 18°04' W 063°06'0 0.0
2020-Jan-23 09:54N 18°04' W 063°06'0 0.0
2020-Jan-23 05:53N 18°04' W 063°06'0 0.0
2020-Jan-22 14:50N 18°04' W 063°06'0 0.0
2020-Jan-22 12:53N 18°04' W 063°06'0 0.0
2020-Jan-22 10:56N 18°04' W 063°06'0 0.0
2020-Jan-22 08:56N 18°04' W 063°06'0 0.0
2020-Jan-22 08:14N 18°04' W 063°06'0 0.0
2020-Jan-22 03:56N 18°04' W 063°06'0 0.0
2020-Jan-22 03:29N 18°04' W 063°06'0 0.0
2020-Jan-21 23:59N 18°04' W 063°06'0 0.0
2020-Jan-21 20:20N 18°04' W 063°06'0 0.0
2020-Jan-21 11:25N 18°04' W 063°06'0 0.0
2020-Jan-21 10:22N 18°04' W 063°06'0 0.0
2020-Jan-21 07:28N 18°04' W 063°06'0 0.0
2020-Jan-21 06:58N 18°04' W 063°06'0 0.0
2020-Jan-21 03:58N 18°04' W 063°06'0 0.0
2020-Jan-21 03:28N 18°04' W 063°06'0 0.0
2020-Jan-21 02:58N 18°04' W 063°06'0 0.0
2020-Jan-21 01:16N 18°04' W 063°06'0 0.0
2020-Jan-21 00:58N 18°04' W 063°06'0 0.0
2020-Jan-20 20:46N 18°04' W 063°06'0 0.0
2020-Jan-20 18:22N 18°04' W 063°06'0 0.0
2020-Jan-20 16:49N 18°04' W 063°06'0 0.0
2020-Jan-20 14:49N 18°04' W 063°06'0 0.0
2020-Jan-20 13:25N 18°04' W 063°06'0 0.0
2020-Jan-20 11:40N 18°04' W 063°06'  
2020-Jan-17 08:26N 18°10' W 063°13'6 3.7
2020-Jan-17 06:56N 18°05' W 063°14'7 3.6
2020-Jan-17 05:00N 17°58' W 063°15'2 3.9
2020-Jan-17 04:29N 17°56' W 063°16'2 3.8
2020-Jan-17 04:00N 17°54' W 063°16'6 4.1
2020-Jan-17 02:29N 17°48' W 063°17'8 4.0
2020-Jan-17 00:25N 17°40' W 063°17'3 0.2
2020-Jan-16 10:46N 17°37' W 063°16'0 0.4
2020-Jan-16 09:30N 17°37' W 063°16'1 1.4
2020-Jan-16 08:27N 17°37' W 063°17'19 4.7
2020-Jan-16 04:23N 17°57' W 063°19'2 4.0
2020-Jan-16 03:57N 17°58' W 063°19'1 2.7
2020-Jan-16 03:28N 17°60' W 063°19'7 7.1
2020-Jan-16 02:30N 17°53' W 063°17'8 7.8
2020-Jan-16 01:29N 17°45' W 063°15'15 7.5
2020-Jan-15 23:30N 17°32' W 063°08'7 7.0
2020-Jan-15 22:28N 17°26' W 063°04'15 0.9
2020-Jan-15 04:49N 17°13' W 062°55'4 3.3
2020-Jan-15 03:30N 17°17' W 062°57'4 3.2
2020-Jan-15 02:08N 17°21' W 062°59'3 3.5
2020-Jan-15 01:16N 17°23' W 063°01'5 3.6
2020-Jan-14 23:59N 17°28' W 063°02'12 4.4
2020-Jan-14 21:21N 17°39' W 063°04'2 5.4
2020-Jan-14 20:58N 17°41' W 063°04'8 5.1
2020-Jan-14 19:26N 17°49' W 063°02'5 4.4
2020-Jan-14 18:14N 17°54' W 063°01'1 2.3
2020-Jan-14 17:48N 17°55' W 063°02'1 2.0
2020-Jan-14 17:30N 17°55' W 063°02'2 2.8
2020-Jan-14 16:44N 17°57' W 063°03'5 2.4
2020-Jan-14 14:31N 18°01' W 063°07'2 3.3
2020-Jan-14 14:01N 18°02' W 063°08'2 4.0
2020-Jan-14 13:28N 18°04' W 063°10'4 1.7
2020-Jan-14 11:04N 18°04' W 063°06'0 0.0
2020-Jan-14 10:34N 18°04' W 063°06'0 0.0
2020-Jan-14 07:25N 18°04' W 063°06'0 0.0
2020-Jan-14 05:40N 18°04' W 063°06'0 0.1
2020-Jan-14 05:25N 18°04' W 063°06'  
Track history (hours):
 
Tides and Currents Weather Stations Pressure Air Temp Water Temp Dewpoint Dewpoint Depression Visibility Wind Speed Wind Dir Waves Ship Positions

Eendracht (Netherlands)

Last reported at 2020-Jan-24 03:15 UTC. Time now 2020-Jan-24 04:48 UTC.
Position N 18°04' W 063°06'.

Length 59 m; beam 12 m; draft 5 m.

Type: Sailing vessel. MMSI: 244543000.

Date/timePositionNaut miles runAvg speedWind from/ knotsBaromVisibWave heightAir tempDewpointWater temp
2020-Jan-24 03:15N 18°04' W 063°06'0 0.0
2020-Jan-24 02:03N 18°05' W 063°06'0 0.0
2020-Jan-24 00:30N 18°05' W 063°06'0 0.0
2020-Jan-23 23:30N 18°05' W 063°06'0 0.0
2020-Jan-23 22:00N 18°05' W 063°06'0 0.0
2020-Jan-23 16:24N 18°04' W 063°06'0 0.0
2020-Jan-23 15:24N 18°04' W 063°06'0 0.0
2020-Jan-23 13:54N 18°04' W 063°06'0 0.0
2020-Jan-23 09:54N 18°04' W 063°06'0 0.0
2020-Jan-23 05:53N 18°04' W 063°06'0 0.0
2020-Jan-22 14:50N 18°04' W 063°06'0 0.0
2020-Jan-22 12:53N 18°04' W 063°06'0 0.0
2020-Jan-22 10:56N 18°04' W 063°06'0 0.0
2020-Jan-22 08:56N 18°04' W 063°06'0 0.0
2020-Jan-22 08:14N 18°04' W 063°06'0 0.0
2020-Jan-22 03:56N 18°04' W 063°06'0 0.0
2020-Jan-22 03:29N 18°04' W 063°06'0 0.0
2020-Jan-21 23:59N 18°04' W 063°06'0 0.0
2020-Jan-21 20:20N 18°04' W 063°06'0 0.0
2020-Jan-21 11:25N 18°04' W 063°06'0 0.0
2020-Jan-21 10:22N 18°04' W 063°06'0 0.0
2020-Jan-21 07:28N 18°04' W 063°06'0 0.0
2020-Jan-21 06:58N 18°04' W 063°06'0 0.0
2020-Jan-21 03:58N 18°04' W 063°06'0 0.0
2020-Jan-21 03:28N 18°04' W 063°06'0 0.0
2020-Jan-21 02:58N 18°04' W 063°06'0 0.0
2020-Jan-21 01:16N 18°04' W 063°06'0 0.0
2020-Jan-21 00:58N 18°04' W 063°06'0 0.0
2020-Jan-20 20:46N 18°04' W 063°06'0 0.0
2020-Jan-20 18:22N 18°04' W 063°06'0 0.0
2020-Jan-20 16:49N 18°04' W 063°06'0 0.0
2020-Jan-20 14:49N 18°04' W 063°06'0 0.0
2020-Jan-20 13:25N 18°04' W 063°06'0 0.0
2020-Jan-20 11:40N 18°04' W 063°06'  
2020-Jan-17 08:26N 18°10' W 063°13'6 3.7
2020-Jan-17 06:56N 18°05' W 063°14'7 3.6
2020-Jan-17 05:00N 17°58' W 063°15'2 3.9
2020-Jan-17 04:29N 17°56' W 063°16'2 3.8
2020-Jan-17 04:00N 17°54' W 063°16'6 4.1
2020-Jan-17 02:29N 17°48' W 063°17'8 4.0
2020-Jan-17 00:25N 17°40' W 063°17'3 0.2
2020-Jan-16 10:46N 17°37' W 063°16'0 0.4
2020-Jan-16 09:30N 17°37' W 063°16'1 1.4
2020-Jan-16 08:27N 17°37' W 063°17'19 4.7
2020-Jan-16 04:23N 17°57' W 063°19'2 4.0
2020-Jan-16 03:57N 17°58' W 063°19'1 2.7
2020-Jan-16 03:28N 17°60' W 063°19'7 7.1
2020-Jan-16 02:30N 17°53' W 063°17'8 7.8
2020-Jan-16 01:29N 17°45' W 063°15'15 7.5
2020-Jan-15 23:30N 17°32' W 063°08'7 7.0
2020-Jan-15 22:28N 17°26' W 063°04'15 0.9
2020-Jan-15 04:49N 17°13' W 062°55'4 3.3
2020-Jan-15 03:30N 17°17' W 062°57'4 3.2
2020-Jan-15 02:08N 17°21' W 062°59'3 3.5
2020-Jan-15 01:16N 17°23' W 063°01'5 3.6
2020-Jan-14 23:59N 17°28' W 063°02'12 4.4
2020-Jan-14 21:21N 17°39' W 063°04'2 5.4
2020-Jan-14 20:58N 17°41' W 063°04'8 5.1
2020-Jan-14 19:26N 17°49' W 063°02'5 4.4
2020-Jan-14 18:14N 17°54' W 063°01'1 2.3
2020-Jan-14 17:48N 17°55' W 063°02'1 2.0
2020-Jan-14 17:30N 17°55' W 063°02'2 2.8
2020-Jan-14 16:44N 17°57' W 063°03'5 2.4
2020-Jan-14 14:31N 18°01' W 063°07'2 3.3
2020-Jan-14 14:01N 18°02' W 063°08'2 4.0
2020-Jan-14 13:28N 18°04' W 063°10'4 1.7
2020-Jan-14 11:04N 18°04' W 063°06'0 0.0
2020-Jan-14 10:34N 18°04' W 063°06'0 0.0
2020-Jan-14 07:25N 18°04' W 063°06'0 0.0
2020-Jan-14 05:40N 18°04' W 063°06'0 0.1
2020-Jan-14 05:25N 18°04' W 063°06'  

Dump ship's entire track history